Terminal Aerodrome Forecast
Issued by NWS

Home | Current Version | Previous Version | Text Only | Print | Product List | Glossary On
Versions: 1 2 3 4 5 6 7 8 9 10 11 12 13 14 15 16 17
000
FTUS46 KMTR 131700
TAFOAK
TAF
KOAK 131721Z 1318/1424 25006KT P6SM OVC007
     FM131900 27010KT P6SM SCT015
     FM132000 29015KT P6SM FEW010
     FM140400 28010KT P6SM BKN010
     FM140600 27008KT P6SM OVC008
     FM141800 28010KT P6SM BKN010=

USA.gov is the U.S. government's official web portal to all federal, state and local government web resources and services.